SBOSBO PHX / KPHX
Speedbird OnlineSpeedbird Online PHX / KPHX

Phoenix Sky Harbor International Airport
22:36 9.9°C

Location Phoenix, United States
Latitude: 33.43429946899414
Longitude: -112.01200103759766
Web Airport Website | Wikipedia
Altitude 346 Meter / 1135 Feet
Distance 8,492 KM / 5,277 Miles
from London.
Time Zone UTC -7 hours (America/Phoenix)
Codes IATA: PHX
ICAO: KPHX
Currency £1 equals USD 1.24
Runways
RunwayLength (m)Surface
07L3139Asphalt
07R2377Concrete
083502Concrete
25L2377Concrete
25R3139Asphalt
263502Concrete
Radio
TypeDescriptionFrequency
A/DAPP/DEP124.1
ATISATIS127.575
CLDCLNC DEL118.1
GNDGND119.75
POSTANG COMD POST140
RDOPRESCOTT RDO122.2
TWRTWR118.7
UNICUNICOM122.95
Live ATC
METAR KPHX 290451Z 12004KT 10SM CLR 11/M03 A2994 RMK AO2 SLP135 T01061028
TAF KPHX 290520Z 2906/3012 12005KT P6SM SKC FM291800 16008KT P6SM FEW250 FM292200 22010KT P6SM FEW250 FM300400 14007KT P6SM FEW250
Weather As Of 28 Jan 2023 22:36
Description Clear sky
Wind 7 km/h from South-East (120°)
Cloud Cover 0%
Precipitation Rain: none, Snow: none
Sunrise 07:26
Sunset 17:55
Lounges Escape Lounge , Terminal 4
American Airlines Admirals Club, Terminal 4
American Airlines Admirals Club, Terminal 4
American Airlines Admirals Club, Terminal 4
Rotations During the last 90 days there were
86 flights from LHR
19 flights to LHR



Support Speedbird Online

© 2017-2023 Speedbird Online